sensor_id;sensor_type;location;lat;lon;timestamp;P1;P2;P0
45990;PMS5003;31721;41.740;-88.000;2022-11-30T00:00:49;15;14;
45990;PMS5003;31721;41.740;-88.000;2022-11-30T00:03:17;12;12;
45990;PMS5003;31721;41.740;-88.000;2022-11-30T00:05:45;10;9;
45990;PMS5003;31721;41.740;-88.000;2022-11-30T00:08:13;13;13;
45990;PMS5003;31721;41.740;-88.000;2022-11-30T00:10:41;8;8;
45990;PMS5003;31721;41.740;-88.000;2022-11-30T00:13:09;11;11;
45990;PMS5003;31721;41.740;-88.000;2022-11-30T00:15:37;14;12;
45990;PMS5003;31721;41.740;-88.000;2022-11-30T00:18:05;14;11;
45990;PMS5003;31721;41.740;-88.000;2022-11-30T00:20:33;11;11;
45990;PMS5003;31721;41.740;-88.000;2022-11-30T00:23:01;11;10;
45990;PMS5003;31721;41.740;-88.000;2022-11-30T00:25:29;12;10;
45990;PMS5003;31721;41.740;-88.000;2022-11-30T00:27:59;12;11;
45990;PMS5003;31721;41.740;-88.000;2022-11-30T00:30:26;12;11;
45990;PMS5003;31721;41.740;-88.000;2022-11-30T00:32:55;17;16;
45990;PMS5003;31721;41.740;-88.000;2022-11-30T00:35:23;12;12;
45990;PMS5003;31721;41.740;-88.000;2022-11-30T00:37:51;12;10;
45990;PMS5003;31721;41.740;-88.000;2022-11-30T00:40:19;14;13;
45990;PMS5003;31721;41.740;-88.000;2022-11-30T00:42:47;16;14;
45990;PMS5003;31721;41.740;-88.000;2022-11-30T00:45:15;15;12;
45990;PMS5003;31721;41.740;-88.000;2022-11-30T00:47:43;12;11;
45990;PMS5003;31721;41.740;-88.000;2022-11-30T00:50:11;13;13;
45990;PMS5003;31721;41.740;-88.000;2022-11-30T00:52:39;17;17;
45990;PMS5003;31721;41.740;-88.000;2022-11-30T00:55:07;14;13;
45990;PMS5003;31721;41.740;-88.000;2022-11-30T00:57:35;15;14;
45990;PMS5003;31721;41.740;-88.000;2022-11-30T01:00:03;17;17;
45990;PMS5003;31721;41.740;-88.000;2022-11-30T01:02:32;14;12;
45990;PMS5003;31721;41.740;-88.000;2022-11-30T01:05:00;18;15;
45990;PMS5003;31721;41.740;-88.000;2022-11-30T01:07:28;21;21;
45990;PMS5003;31721;41.740;-88.000;2022-11-30T01:09:56;15;14;
45990;PMS5003;31721;41.740;-88.000;2022-11-30T01:12:24;15;14;
45990;PMS5003;31721;41.740;-88.000;2022-11-30T01:14:51;19;19;
45990;PMS5003;31721;41.740;-88.000;2022-11-30T01:17:19;14;14;
45990;PMS5003;31721;41.740;-88.000;2022-11-30T01:19:47;22;22;
45990;PMS5003;31721;41.740;-88.000;2022-11-30T01:22:15;23;22;
45990;PMS5003;31721;41.740;-88.000;2022-11-30T01:24:43;19;15;
45990;PMS5003;31721;41.740;-88.000;2022-11-30T01:27:10;17;16;
45990;PMS5003;31721;41.740;-88.000;2022-11-30T01:29:38;17;16;
45990;PMS5003;31721;41.740;-88.000;2022-11-30T01:32:05;17;16;
45990;PMS5003;31721;41.740;-88.000;2022-11-30T01:34:34;24;21;
45990;PMS5003;31721;41.740;-88.000;2022-11-30T01:37:01;14;13;
45990;PMS5003;31721;41.740;-88.000;2022-11-30T01:39:30;22;17;
45990;PMS5003;31721;41.740;-88.000;2022-11-30T01:41:58;18;16;
45990;PMS5003;31721;41.740;-88.000;2022-11-30T01:44:58;15;15;
45990;PMS5003;31721;41.740;-88.000;2022-11-30T01:47:28;22;19;
45990;PMS5003;31721;41.740;-88.000;2022-11-30T01:50:01;24;19;
45990;PMS5003;31721;41.740;-88.000;2022-11-30T01:52:34;22;22;
45990;PMS5003;31721;41.740;-88.000;2022-11-30T01:55:07;25;22;
45990;PMS5003;31721;41.740;-88.000;2022-11-30T01:57:45;18;14;
45990;PMS5003;31721;41.740;-88.000;2022-11-30T02:00:17;20;16;
45990;PMS5003;31721;41.740;-88.000;2022-11-30T02:02:48;20;19;
45990;PMS5003;31721;41.740;-88.000;2022-11-30T02:05:21;18;16;
45990;PMS5003;31721;41.740;-88.000;2022-11-30T02:07:50;15;15;
45990;PMS5003;31721;41.740;-88.000;2022-11-30T02:10:20;12;11;
45990;PMS5003;31721;41.740;-88.000;2022-11-30T02:12:58;13;12;
45990;PMS5003;31721;41.740;-88.000;2022-11-30T02:15:40;13;13;
45990;PMS5003;31721;41.740;-88.000;2022-11-30T02:18:19;12;12;
45990;PMS5003;31721;41.740;-88.000;2022-11-30T02:20:54;9;8;
45990;PMS5003;31721;41.740;-88.000;2022-11-30T02:23:39;9;7;
45990;PMS5003;31721;41.740;-88.000;2022-11-30T02:26:26;9;9;
45990;PMS5003;31721;41.740;-88.000;2022-11-30T02:29:08;9;9;
45990;PMS5003;31721;41.740;-88.000;2022-11-30T02:31:43;16;16;
45990;PMS5003;31721;41.740;-88.000;2022-11-30T02:34:18;11;10;
45990;PMS5003;31721;41.740;-88.000;2022-11-30T02:36:48;14;12;
45990;PMS5003;31721;41.740;-88.000;2022-11-30T02:39:18;10;9;
45990;PMS5003;31721;41.740;-88.000;2022-11-30T02:41:46;15;10;
45990;PMS5003;31721;41.740;-88.000;2022-11-30T02:44:14;9;9;
45990;PMS5003;31721;41.740;-88.000;2022-11-30T02:46:48;16;13;
45990;PMS5003;31721;41.740;-88.000;2022-11-30T02:49:27;14;13;
45990;PMS5003;31721;41.740;-88.000;2022-11-30T02:51:59;11;11;
45990;PMS5003;31721;41.740;-88.000;2022-11-30T02:54:29;13;11;
45990;PMS5003;31721;41.740;-88.000;2022-11-30T02:56:57;14;11;
45990;PMS5003;31721;41.740;-88.000;2022-11-30T02:59:25;14;12;
45990;PMS5003;31721;41.740;-88.000;2022-11-30T03:01:53;16;15;
45990;PMS5003;31721;41.740;-88.000;2022-11-30T03:04:21;13;12;
45990;PMS5003;31721;41.740;-88.000;2022-11-30T03:06:49;11;11;
45990;PMS5003;31721;41.740;-88.000;2022-11-30T03:09:17;15;14;
45990;PMS5003;31721;41.740;-88.000;2022-11-30T03:11:45;10;6;
45990;PMS5003;31721;41.740;-88.000;2022-11-30T03:14:13;11;10;
45990;PMS5003;31721;41.740;-88.000;2022-11-30T03:16:41;12;10;
45990;PMS5003;31721;41.740;-88.000;2022-11-30T03:19:09;12;10;
45990;PMS5003;31721;41.740;-88.000;2022-11-30T03:21:36;12;10;
45990;PMS5003;31721;41.740;-88.000;2022-11-30T03:24:04;13;12;
45990;PMS5003;31721;41.740;-88.000;2022-11-30T03:26:33;8;8;
45990;PMS5003;31721;41.740;-88.000;2022-11-30T03:29:01;9;9;
45990;PMS5003;31721;41.740;-88.000;2022-11-30T03:31:29;8;6;
45990;PMS5003;31721;41.740;-88.000;2022-11-30T03:33:57;9;9;
45990;PMS5003;31721;41.740;-88.000;2022-11-30T03:36:25;8;8;
45990;PMS5003;31721;41.740;-88.000;2022-11-30T03:38:52;7;7;
45990;PMS5003;31721;41.740;-88.000;2022-11-30T03:41:21;4;4;
45990;PMS5003;31721;41.740;-88.000;2022-11-30T03:43:48;6;6;
45990;PMS5003;31721;41.740;-88.000;2022-11-30T03:46:16;9;8;
45990;PMS5003;31721;41.740;-88.000;2022-11-30T03:48:45;9;9;
45990;PMS5003;31721;41.740;-88.000;2022-11-30T03:51:13;6;6;
45990;PMS5003;31721;41.740;-88.000;2022-11-30T03:53:41;8;7;
45990;PMS5003;31721;41.740;-88.000;2022-11-30T03:56:09;6;6;
45990;PMS5003;31721;41.740;-88.000;2022-11-30T03:58:37;8;7;
45990;PMS5003;31721;41.740;-88.000;2022-11-30T04:01:08;8;7;
45990;PMS5003;31721;41.740;-88.000;2022-11-30T04:03:38;7;7;
45990;PMS5003;31721;41.740;-88.000;2022-11-30T04:06:07;8;7;
45990;PMS5003;31721;41.740;-88.000;2022-11-30T04:08:35;6;4;
45990;PMS5003;31721;41.740;-88.000;2022-11-30T04:11:04;5;5;
45990;PMS5003;31721;41.740;-88.000;2022-11-30T04:13:32;6;6;
45990;PMS5003;31721;41.740;-88.000;2022-11-30T04:16:01;10;8;
45990;PMS5003;31721;41.740;-88.000;2022-11-30T04:18:31;6;6;
45990;PMS5003;31721;41.740;-88.000;2022-11-30T04:21:00;6;6;
45990;PMS5003;31721;41.740;-88.000;2022-11-30T04:23:29;8;6;
45990;PMS5003;31721;41.740;-88.000;2022-11-30T04:25:59;8;6;
45990;PMS5003;31721;41.740;-88.000;2022-11-30T04:28:28;12;12;
45990;PMS5003;31721;41.740;-88.000;2022-11-30T04:30:56;5;5;
45990;PMS5003;31721;41.740;-88.000;2022-11-30T04:33:23;10;6;
45990;PMS5003;31721;41.740;-88.000;2022-11-30T04:35:52;5;5;
45990;PMS5003;31721;41.740;-88.000;2022-11-30T04:38:22;6;6;
45990;PMS5003;31721;41.740;-88.000;2022-11-30T04:40:50;6;6;
45990;PMS5003;31721;41.740;-88.000;2022-11-30T04:43:19;11;7;
45990;PMS5003;31721;41.740;-88.000;2022-11-30T04:45:47;6;6;
45990;PMS5003;31721;41.740;-88.000;2022-11-30T04:48:16;6;5;
45990;PMS5003;31721;41.740;-88.000;2022-11-30T04:50:44;6;6;
45990;PMS5003;31721;41.740;-88.000;2022-11-30T04:53:12;6;5;
45990;PMS5003;31721;41.740;-88.000;2022-11-30T04:55:40;5;5;
45990;PMS5003;31721;41.740;-88.000;2022-11-30T04:58:08;10;7;
45990;PMS5003;31721;41.740;-88.000;2022-11-30T05:00:36;7;7;
45990;PMS5003;31721;41.740;-88.000;2022-11-30T05:03:04;6;6;
45990;PMS5003;31721;41.740;-88.000;2022-11-30T05:05:32;8;8;
45990;PMS5003;31721;41.740;-88.000;2022-11-30T05:07:59;8;6;
45990;PMS5003;31721;41.740;-88.000;2022-11-30T05:10:27;7;7;
45990;PMS5003;31721;41.740;-88.000;2022-11-30T05:12:55;3;3;
45990;PMS5003;31721;41.740;-88.000;2022-11-30T05:15:23;8;8;
45990;PMS5003;31721;41.740;-88.000;2022-11-30T05:17:51;10;9;
45990;PMS5003;31721;41.740;-88.000;2022-11-30T05:20:18;10;8;
45990;PMS5003;31721;41.740;-88.000;2022-11-30T05:22:47;10;7;
45990;PMS5003;31721;41.740;-88.000;2022-11-30T05:25:15;8;8;
45990;PMS5003;31721;41.740;-88.000;2022-11-30T05:27:43;14;14;
45990;PMS5003;31721;41.740;-88.000;2022-11-30T05:30:12;9;7;
45990;PMS5003;31721;41.740;-88.000;2022-11-30T05:32:41;9;9;
45990;PMS5003;31721;41.740;-88.000;2022-11-30T05:35:09;9;7;
45990;PMS5003;31721;41.740;-88.000;2022-11-30T05:37:37;11;10;
45990;PMS5003;31721;41.740;-88.000;2022-11-30T05:40:05;6;6;
45990;PMS5003;31721;41.740;-88.000;2022-11-30T05:42:33;6;6;
45990;PMS5003;31721;41.740;-88.000;2022-11-30T05:45:01;9;9;
45990;PMS5003;31721;41.740;-88.000;2022-11-30T05:47:29;9;7;
45990;PMS5003;31721;41.740;-88.000;2022-11-30T05:49:57;7;7;
45990;PMS5003;31721;41.740;-88.000;2022-11-30T05:52:25;10;10;
45990;PMS5003;31721;41.740;-88.000;2022-11-30T05:54:52;11;7;
45990;PMS5003;31721;41.740;-88.000;2022-11-30T05:57:20;9;9;
45990;PMS5003;31721;41.740;-88.000;2022-11-30T05:59:48;9;6;
45990;PMS5003;31721;41.740;-88.000;2022-11-30T06:02:15;10;10;
45990;PMS5003;31721;41.740;-88.000;2022-11-30T06:04:43;7;7;
45990;PMS5003;31721;41.740;-88.000;2022-11-30T06:07:11;7;7;
45990;PMS5003;31721;41.740;-88.000;2022-11-30T06:09:38;9;6;
45990;PMS5003;31721;41.740;-88.000;2022-11-30T06:12:07;9;7;
45990;PMS5003;31721;41.740;-88.000;2022-11-30T06:14:34;9;7;
45990;PMS5003;31721;41.740;-88.000;2022-11-30T06:17:02;7;6;
45990;PMS5003;31721;41.740;-88.000;2022-11-30T06:19:29;9;7;
45990;PMS5003;31721;41.740;-88.000;2022-11-30T06:21:56;7;7;
45990;PMS5003;31721;41.740;-88.000;2022-11-30T06:24:24;6;6;
45990;PMS5003;31721;41.740;-88.000;2022-11-30T06:26:53;7;7;
45990;PMS5003;31721;41.740;-88.000;2022-11-30T06:29:20;6;6;
45990;PMS5003;31721;41.740;-88.000;2022-11-30T06:31:48;7;6;
45990;PMS5003;31721;41.740;-88.000;2022-11-30T06:34:16;3;3;
45990;PMS5003;31721;41.740;-88.000;2022-11-30T06:36:43;7;7;
45990;PMS5003;31721;41.740;-88.000;2022-11-30T06:39:11;3;3;
45990;PMS5003;31721;41.740;-88.000;2022-11-30T06:41:39;2;2;
45990;PMS5003;31721;41.740;-88.000;2022-11-30T06:44:07;6;5;
45990;PMS5003;31721;41.740;-88.000;2022-11-30T06:46:35;2;2;
45990;PMS5003;31721;41.740;-88.000;2022-11-30T06:49:03;4;4;
45990;PMS5003;31721;41.740;-88.000;2022-11-30T06:51:31;4;4;
45990;PMS5003;31721;41.740;-88.000;2022-11-30T06:53:59;2;2;
45990;PMS5003;31721;41.740;-88.000;2022-11-30T06:56:27;4;2;
45990;PMS5003;31721;41.740;-88.000;2022-11-30T06:58:54;2;2;
45990;PMS5003;31721;41.740;-88.000;2022-11-30T07:01:22;4;4;
45990;PMS5003;31721;41.740;-88.000;2022-11-30T07:03:50;2;2;
45990;PMS5003;31721;41.740;-88.000;2022-11-30T07:06:17;2;2;
45990;PMS5003;31721;41.740;-88.000;2022-11-30T07:08:45;5;2;
45990;PMS5003;31721;41.740;-88.000;2022-11-30T07:11:12;2;2;
45990;PMS5003;31721;41.740;-88.000;2022-11-30T07:13:40;4;4;
45990;PMS5003;31721;41.740;-88.000;2022-11-30T07:16:09;4;2;
45990;PMS5003;31721;41.740;-88.000;2022-11-30T07:18:37;2;2;
45990;PMS5003;31721;41.740;-88.000;2022-11-30T07:21:05;2;2;
45990;PMS5003;31721;41.740;-88.000;2022-11-30T07:23:33;2;2;
45990;PMS5003;31721;41.740;-88.000;2022-11-30T07:26:01;5;5;
45990;PMS5003;31721;41.740;-88.000;2022-11-30T07:28:29;4;4;
45990;PMS5003;31721;41.740;-88.000;2022-11-30T07:30:57;2;2;
45990;PMS5003;31721;41.740;-88.000;2022-11-30T07:33:24;2;2;
45990;PMS5003;31721;41.740;-88.000;2022-11-30T07:35:52;1;1;
45990;PMS5003;31721;41.740;-88.000;2022-11-30T07:38:19;2;2;
45990;PMS5003;31721;41.740;-88.000;2022-11-30T07:40:47;1;1;
45990;PMS5003;31721;41.740;-88.000;2022-11-30T07:43:15;2;2;
45990;PMS5003;31721;41.740;-88.000;2022-11-30T07:45:42;2;2;
45990;PMS5003;31721;41.740;-88.000;2022-11-30T07:48:18;1;1;
45990;PMS5003;31721;41.740;-88.000;2022-11-30T07:50:46;4;2;
45990;PMS5003;31721;41.740;-88.000;2022-11-30T07:53:15;5;4;
45990;PMS5003;31721;41.740;-88.000;2022-11-30T07:55:42;4;4;
45990;PMS5003;31721;41.740;-88.000;2022-11-30T07:58:11;2;2;
45990;PMS5003;31721;41.740;-88.000;2022-11-30T08:00:39;4;4;
45990;PMS5003;31721;41.740;-88.000;2022-11-30T08:03:06;2;2;
45990;PMS5003;31721;41.740;-88.000;2022-11-30T08:05:34;2;2;
45990;PMS5003;31721;41.740;-88.000;2022-11-30T08:08:01;1;1;
45990;PMS5003;31721;41.740;-88.000;2022-11-30T08:10:29;8;8;
45990;PMS5003;31721;41.740;-88.000;2022-11-30T08:12:57;16;16;
45990;PMS5003;31721;41.740;-88.000;2022-11-30T08:15:24;20;20;
45990;PMS5003;31721;41.740;-88.000;2022-11-30T08:17:52;20;20;
45990;PMS5003;31721;41.740;-88.000;2022-11-30T08:20:20;12;12;
45990;PMS5003;31721;41.740;-88.000;2022-11-30T08:22:48;59;59;
45990;PMS5003;31721;41.740;-88.000;2022-11-30T08:25:16;34;34;
45990;PMS5003;31721;41.740;-88.000;2022-11-30T08:27:44;35;35;
45990;PMS5003;31721;41.740;-88.000;2022-11-30T08:30:11;51;51;
45990;PMS5003;31721;41.740;-88.000;2022-11-30T08:32:39;7;7;
45990;PMS5003;31721;41.740;-88.000;2022-11-30T08:35:07;5;4;
45990;PMS5003;31721;41.740;-88.000;2022-11-30T08:37:36;8;5;
45990;PMS5003;31721;41.740;-88.000;2022-11-30T08:40:04;5;4;
45990;PMS5003;31721;41.740;-88.000;2022-11-30T08:42:32;5;5;
45990;PMS5003;31721;41.740;-88.000;2022-11-30T08:45:00;1;1;
45990;PMS5003;31721;41.740;-88.000;2022-11-30T08:47:28;2;2;
45990;PMS5003;31721;41.740;-88.000;2022-11-30T08:49:55;4;4;
45990;PMS5003;31721;41.740;-88.000;2022-11-30T08:52:23;2;2;
45990;PMS5003;31721;41.740;-88.000;2022-11-30T08:54:51;2;2;
45990;PMS5003;31721;41.740;-88.000;2022-11-30T08:57:19;5;4;
45990;PMS5003;31721;41.740;-88.000;2022-11-30T08:59:47;4;2;
45990;PMS5003;31721;41.740;-88.000;2022-11-30T09:02:15;4;4;
45990;PMS5003;31721;41.740;-88.000;2022-11-30T09:04:45;2;2;
45990;PMS5003;31721;41.740;-88.000;2022-11-30T09:07:14;1;1;
45990;PMS5003;31721;41.740;-88.000;2022-11-30T09:09:41;4;2;
45990;PMS5003;31721;41.740;-88.000;2022-11-30T09:12:09;4;4;
45990;PMS5003;31721;41.740;-88.000;2022-11-30T09:14:37;2;2;
45990;PMS5003;31721;41.740;-88.000;2022-11-30T09:17:04;2;2;
45990;PMS5003;31721;41.740;-88.000;2022-11-30T09:19:32;7;2;
45990;PMS5003;31721;41.740;-88.000;2022-11-30T09:22:00;2;2;
45990;PMS5003;31721;41.740;-88.000;2022-11-30T09:24:27;1;1;
45990;PMS5003;31721;41.740;-88.000;2022-11-30T09:26:55;4;4;
45990;PMS5003;31721;41.740;-88.000;2022-11-30T09:29:23;4;4;
45990;PMS5003;31721;41.740;-88.000;2022-11-30T09:31:50;4;4;
45990;PMS5003;31721;41.740;-88.000;2022-11-30T09:34:18;4;1;
45990;PMS5003;31721;41.740;-88.000;2022-11-30T09:36:46;2;2;
45990;PMS5003;31721;41.740;-88.000;2022-11-30T09:39:14;1;1;
45990;PMS5003;31721;41.740;-88.000;2022-11-30T09:41:48;2;2;
45990;PMS5003;31721;41.740;-88.000;2022-11-30T09:44:29;4;2;
45990;PMS5003;31721;41.740;-88.000;2022-11-30T09:47:10;5;5;
45990;PMS5003;31721;41.740;-88.000;2022-11-30T09:49:55;2;2;
45990;PMS5003;31721;41.740;-88.000;2022-11-30T09:52:33;1;1;
45990;PMS5003;31721;41.740;-88.000;2022-11-30T09:55:05;2;2;
45990;PMS5003;31721;41.740;-88.000;2022-11-30T09:57:40;5;4;
45990;PMS5003;31721;41.740;-88.000;2022-11-30T10:00:13;4;4;
45990;PMS5003;31721;41.740;-88.000;2022-11-30T10:02:43;4;2;
45990;PMS5003;31721;41.740;-88.000;2022-11-30T10:05:11;4;4;
45990;PMS5003;31721;41.740;-88.000;2022-11-30T10:07:45;2;2;
45990;PMS5003;31721;41.740;-88.000;2022-11-30T10:10:25;5;4;
45990;PMS5003;31721;41.740;-88.000;2022-11-30T10:13:05;8;4;
45990;PMS5003;31721;41.740;-88.000;2022-11-30T10:15:44;1;1;
45990;PMS5003;31721;41.740;-88.000;2022-11-30T10:18:22;1;1;
45990;PMS5003;31721;41.740;-88.000;2022-11-30T10:20:58;2;2;
45990;PMS5003;31721;41.740;-88.000;2022-11-30T10:23:40;4;4;
45990;PMS5003;31721;41.740;-88.000;2022-11-30T10:26:20;2;2;
45990;PMS5003;31721;41.740;-88.000;2022-11-30T10:28:52;5;5;
45990;PMS5003;31721;41.740;-88.000;2022-11-30T10:31:24;5;4;
45990;PMS5003;31721;41.740;-88.000;2022-11-30T10:33:54;4;4;
45990;PMS5003;31721;41.740;-88.000;2022-11-30T10:36:32;10;10;
45990;PMS5003;31721;41.740;-88.000;2022-11-30T10:39:03;4;4;
45990;PMS5003;31721;41.740;-88.000;2022-11-30T10:41:40;4;2;
45990;PMS5003;31721;41.740;-88.000;2022-11-30T10:44:13;5;5;
45990;PMS5003;31721;41.740;-88.000;2022-11-30T10:46:48;2;2;
45990;PMS5003;31721;41.740;-88.000;2022-11-30T10:49:21;7;5;
45990;PMS5003;31721;41.740;-88.000;2022-11-30T10:51:51;4;4;
45990;PMS5003;31721;41.740;-88.000;2022-11-30T10:54:23;2;2;
45990;PMS5003;31721;41.740;-88.000;2022-11-30T10:56:51;4;4;
45990;PMS5003;31721;41.740;-88.000;2022-11-30T10:59:20;2;2;
45990;PMS5003;31721;41.740;-88.000;2022-11-30T11:01:50;4;4;
45990;PMS5003;31721;41.740;-88.000;2022-11-30T11:04:18;2;2;
45990;PMS5003;31721;41.740;-88.000;2022-11-30T11:06:48;7;4;
45990;PMS5003;31721;41.740;-88.000;2022-11-30T11:09:34;5;4;
45990;PMS5003;31721;41.740;-88.000;2022-11-30T11:12:05;7;7;
45990;PMS5003;31721;41.740;-88.000;2022-11-30T11:14:40;4;4;
45990;PMS5003;31721;41.740;-88.000;2022-11-30T11:17:20;5;5;
45990;PMS5003;31721;41.740;-88.000;2022-11-30T11:19:49;5;4;
45990;PMS5003;31721;41.740;-88.000;2022-11-30T11:22:18;4;4;
45990;PMS5003;31721;41.740;-88.000;2022-11-30T11:24:48;5;5;
45990;PMS5003;31721;41.740;-88.000;2022-11-30T11:27:21;5;2;
45990;PMS5003;31721;41.740;-88.000;2022-11-30T11:30:00;5;4;
45990;PMS5003;31721;41.740;-88.000;2022-11-30T11:32:29;8;7;
45990;PMS5003;31721;41.740;-88.000;2022-11-30T11:34:57;5;5;
45990;PMS5003;31721;41.740;-88.000;2022-11-30T11:37:26;7;5;
45990;PMS5003;31721;41.740;-88.000;2022-11-30T11:39:56;8;7;
45990;PMS5003;31721;41.740;-88.000;2022-11-30T11:42:31;10;5;
45990;PMS5003;31721;41.740;-88.000;2022-11-30T11:45:02;7;7;
45990;PMS5003;31721;41.740;-88.000;2022-11-30T11:47:35;8;5;
45990;PMS5003;31721;41.740;-88.000;2022-11-30T11:50:16;7;5;
45990;PMS5003;31721;41.740;-88.000;2022-11-30T11:52:48;5;4;
45990;PMS5003;31721;41.740;-88.000;2022-11-30T11:55:17;5;4;
45990;PMS5003;31721;41.740;-88.000;2022-11-30T11:57:47;7;4;
45990;PMS5003;31721;41.740;-88.000;2022-11-30T12:00:23;4;4;
45990;PMS5003;31721;41.740;-88.000;2022-11-30T12:02:53;8;7;
45990;PMS5003;31721;41.740;-88.000;2022-11-30T12:05:28;7;5;
45990;PMS5003;31721;41.740;-88.000;2022-11-30T12:08:02;5;5;
45990;PMS5003;31721;41.740;-88.000;2022-11-30T12:10:38;5;5;
45990;PMS5003;31721;41.740;-88.000;2022-11-30T12:13:14;7;7;
45990;PMS5003;31721;41.740;-88.000;2022-11-30T12:15:49;5;5;
45990;PMS5003;31721;41.740;-88.000;2022-11-30T12:18:26;2;2;
45990;PMS5003;31721;41.740;-88.000;2022-11-30T12:21:04;10;7;
45990;PMS5003;31721;41.740;-88.000;2022-11-30T12:23:42;4;4;
45990;PMS5003;31721;41.740;-88.000;2022-11-30T12:26:24;7;4;
45990;PMS5003;31721;41.740;-88.000;2022-11-30T12:29:05;6;6;
45990;PMS5003;31721;41.740;-88.000;2022-11-30T12:31:49;10;9;
45990;PMS5003;31721;41.740;-88.000;2022-11-30T12:34:32;4;4;
45990;PMS5003;31721;41.740;-88.000;2022-11-30T12:37:16;3;3;
45990;PMS5003;31721;41.740;-88.000;2022-11-30T12:39:54;7;4;
45990;PMS5003;31721;41.740;-88.000;2022-11-30T12:42:30;7;6;
45990;PMS5003;31721;41.740;-88.000;2022-11-30T12:45:08;3;3;
45990;PMS5003;31721;41.740;-88.000;2022-11-30T12:47:46;4;4;
45990;PMS5003;31721;41.740;-88.000;2022-11-30T12:50:32;6;6;
45990;PMS5003;31721;41.740;-88.000;2022-11-30T12:53:12;7;4;
45990;PMS5003;31721;41.740;-88.000;2022-11-30T12:55:50;6;3;
45990;PMS5003;31721;41.740;-88.000;2022-11-30T12:58:27;4;4;
45990;PMS5003;31721;41.740;-88.000;2022-11-30T13:01:05;6;6;
45990;PMS5003;31721;41.740;-88.000;2022-11-30T13:03:46;4;4;
45990;PMS5003;31721;41.740;-88.000;2022-11-30T13:06:23;3;3;
45990;PMS5003;31721;41.740;-88.000;2022-11-30T13:08:58;9;4;
45990;PMS5003;31721;41.740;-88.000;2022-11-30T13:11:32;7;6;
45990;PMS5003;31721;41.740;-88.000;2022-11-30T13:14:03;3;3;
45990;PMS5003;31721;41.740;-88.000;2022-11-30T13:16:37;7;4;
45990;PMS5003;31721;41.740;-88.000;2022-11-30T13:19:09;4;4;
45990;PMS5003;31721;41.740;-88.000;2022-11-30T13:21:48;4;4;
45990;PMS5003;31721;41.740;-88.000;2022-11-30T13:24:23;4;3;
45990;PMS5003;31721;41.740;-88.000;2022-11-30T13:27:00;2;2;
45990;PMS5003;31721;41.740;-88.000;2022-11-30T13:29:48;3;3;
45990;PMS5003;31721;41.740;-88.000;2022-11-30T13:32:24;3;3;
45990;PMS5003;31721;41.740;-88.000;2022-11-30T13:34:52;6;4;
45990;PMS5003;31721;41.740;-88.000;2022-11-30T13:37:20;3;3;
45990;PMS5003;31721;41.740;-88.000;2022-11-30T13:39:49;3;3;
45990;PMS5003;31721;41.740;-88.000;2022-11-30T13:42:27;4;2;
45990;PMS5003;31721;41.740;-88.000;2022-11-30T13:45:00;4;4;
45990;PMS5003;31721;41.740;-88.000;2022-11-30T13:47:45;6;1;
45990;PMS5003;31721;41.740;-88.000;2022-11-30T13:50:26;3;3;
45990;PMS5003;31721;41.740;-88.000;2022-11-30T13:53:05;9;4;
45990;PMS5003;31721;41.740;-88.000;2022-11-30T13:55:48;4;4;
45990;PMS5003;31721;41.740;-88.000;2022-11-30T13:58:19;4;4;
45990;PMS5003;31721;41.740;-88.000;2022-11-30T14:00:59;5;4;
45990;PMS5003;31721;41.740;-88.000;2022-11-30T14:03:30;3;3;
45990;PMS5003;31721;41.740;-88.000;2022-11-30T14:05:59;1;1;
45990;PMS5003;31721;41.740;-88.000;2022-11-30T14:08:31;4;4;
45990;PMS5003;31721;41.740;-88.000;2022-11-30T14:11:35;3;1;
45990;PMS5003;31721;41.740;-88.000;2022-11-30T14:15:24;7;3;
45990;PMS5003;31721;41.740;-88.000;2022-11-30T14:18:20;3;3;
45990;PMS5003;31721;41.740;-88.000;2022-11-30T14:20:53;6;3;
45990;PMS5003;31721;41.740;-88.000;2022-11-30T14:23:28;3;3;
45990;PMS5003;31721;41.740;-88.000;2022-11-30T14:25:59;4;4;
45990;PMS5003;31721;41.740;-88.000;2022-11-30T14:28:33;4;3;
45990;PMS5003;31721;41.740;-88.000;2022-11-30T14:31:06;1;1;
45990;PMS5003;31721;41.740;-88.000;2022-11-30T14:33:41;3;3;
45990;PMS5003;31721;41.740;-88.000;2022-11-30T14:36:14;4;4;
45990;PMS5003;31721;41.740;-88.000;2022-11-30T14:38:43;3;3;
45990;PMS5003;31721;41.740;-88.000;2022-11-30T14:41:19;4;3;
45990;PMS5003;31721;41.740;-88.000;2022-11-30T14:44:05;1;1;
45990;PMS5003;31721;41.740;-88.000;2022-11-30T14:46:38;3;3;
45990;PMS5003;31721;41.740;-88.000;2022-11-30T14:49:11;6;4;
45990;PMS5003;31721;41.740;-88.000;2022-11-30T14:51:41;3;3;
45990;PMS5003;31721;41.740;-88.000;2022-11-30T14:54:19;2;2;
45990;PMS5003;31721;41.740;-88.000;2022-11-30T14:57:01;1;1;
45990;PMS5003;31721;41.740;-88.000;2022-11-30T14:59:42;4;4;
45990;PMS5003;31721;41.740;-88.000;2022-11-30T15:02:17;4;4;
45990;PMS5003;31721;41.740;-88.000;2022-11-30T15:04:52;7;3;
45990;PMS5003;31721;41.740;-88.000;2022-11-30T15:07:21;4;2;
45990;PMS5003;31721;41.740;-88.000;2022-11-30T15:09:50;13;3;
45990;PMS5003;31721;41.740;-88.000;2022-11-30T15:12:25;2;2;
45990;PMS5003;31721;41.740;-88.000;2022-11-30T15:15:01;3;3;
45990;PMS5003;31721;41.740;-88.000;2022-11-30T15:17:41;7;7;
45990;PMS5003;31721;41.740;-88.000;2022-11-30T15:20:16;5;2;
45990;PMS5003;31721;41.740;-88.000;2022-11-30T15:22:45;5;5;
45990;PMS5003;31721;41.740;-88.000;2022-11-30T15:25:13;5;4;
45990;PMS5003;31721;41.740;-88.000;2022-11-30T15:27:41;1;1;
45990;PMS5003;31721;41.740;-88.000;2022-11-30T15:32:51;4;4;
45990;PMS5003;31721;41.740;-88.000;2022-11-30T15:35:19;2;2;
45990;PMS5003;31721;41.740;-88.000;2022-11-30T15:37:50;6;3;
45990;PMS5003;31721;41.740;-88.000;2022-11-30T15:40:22;2;2;
45990;PMS5003;31721;41.740;-88.000;2022-11-30T15:42:56;4;2;
45990;PMS5003;31721;41.740;-88.000;2022-11-30T15:45:26;2;2;
45990;PMS5003;31721;41.740;-88.000;2022-11-30T15:47:56;5;5;
45990;PMS5003;31721;41.740;-88.000;2022-11-30T15:50:41;5;4;
45990;PMS5003;31721;41.740;-88.000;2022-11-30T15:53:26;1;1;
45990;PMS5003;31721;41.740;-88.000;2022-11-30T15:55:57;2;2;
45990;PMS5003;31721;41.740;-88.000;2022-11-30T15:58:27;5;4;
45990;PMS5003;31721;41.740;-88.000;2022-11-30T16:00:59;1;1;
45990;PMS5003;31721;41.740;-88.000;2022-11-30T16:03:31;1;1;
45990;PMS5003;31721;41.740;-88.000;2022-11-30T16:06:01;4;1;
45990;PMS5003;31721;41.740;-88.000;2022-11-30T16:08:30;1;1;
45990;PMS5003;31721;41.740;-88.000;2022-11-30T16:10:58;4;1;
45990;PMS5003;31721;41.740;-88.000;2022-11-30T16:13:27;3;3;
45990;PMS5003;31721;41.740;-88.000;2022-11-30T16:15:57;3;3;
45990;PMS5003;31721;41.740;-88.000;2022-11-30T16:18:26;1;1;
45990;PMS5003;31721;41.740;-88.000;2022-11-30T16:20:55;3;3;
45990;PMS5003;31721;41.740;-88.000;2022-11-30T16:23:25;6;1;
45990;PMS5003;31721;41.740;-88.000;2022-11-30T16:25:54;4;4;
45990;PMS5003;31721;41.740;-88.000;2022-11-30T16:28:22;2;2;
45990;PMS5003;31721;41.740;-88.000;2022-11-30T16:30:49;4;4;
45990;PMS5003;31721;41.740;-88.000;2022-11-30T16:33:27;3;3;
45990;PMS5003;31721;41.740;-88.000;2022-11-30T16:35:55;3;3;
45990;PMS5003;31721;41.740;-88.000;2022-11-30T16:38:27;4;4;